sensor_id;sensor_type;location;lat;lon;timestamp;P1;durP1;ratioP1;P2;durP2;ratioP2
6689;SDS011;3382;51.576;8.076;2023-04-25T00:02:05;15.27;;;7.37;;
6689;SDS011;3382;51.576;8.076;2023-04-25T00:04:31;16.40;;;6.87;;
6689;SDS011;3382;51.576;8.076;2023-04-25T00:06:58;12.87;;;7.00;;
6689;SDS011;3382;51.576;8.076;2023-04-25T00:09:26;12.63;;;7.53;;
6689;SDS011;3382;51.576;8.076;2023-04-25T00:11:52;13.33;;;7.17;;
6689;SDS011;3382;51.576;8.076;2023-04-25T00:14:18;12.93;;;6.80;;
6689;SDS011;3382;51.576;8.076;2023-04-25T00:16:43;16.83;;;6.70;;
6689;SDS011;3382;51.576;8.076;2023-04-25T00:19:09;15.27;;;6.73;;
6689;SDS011;3382;51.576;8.076;2023-04-25T00:21:35;13.47;;;7.07;;
6689;SDS011;3382;51.576;8.076;2023-04-25T00:24:02;13.17;;;6.07;;
6689;SDS011;3382;51.576;8.076;2023-04-25T00:26:28;17.37;;;6.47;;
6689;SDS011;3382;51.576;8.076;2023-04-25T00:28:54;15.07;;;6.57;;
6689;SDS011;3382;51.576;8.076;2023-04-25T00:31:20;11.90;;;5.90;;
6689;SDS011;3382;51.576;8.076;2023-04-25T00:33:46;14.40;;;6.63;;
6689;SDS011;3382;51.576;8.076;2023-04-25T00:36:12;11.17;;;5.87;;
6689;SDS011;3382;51.576;8.076;2023-04-25T00:38:38;17.60;;;7.33;;
6689;SDS011;3382;51.576;8.076;2023-04-25T00:41:04;11.30;;;6.17;;
6689;SDS011;3382;51.576;8.076;2023-04-25T00:43:31;22.70;;;8.03;;
6689;SDS011;3382;51.576;8.076;2023-04-25T00:45:59;15.43;;;6.50;;
6689;SDS011;3382;51.576;8.076;2023-04-25T00:48:25;17.37;;;7.30;;
6689;SDS011;3382;51.576;8.076;2023-04-25T00:50:52;15.43;;;6.63;;
6689;SDS011;3382;51.576;8.076;2023-04-25T00:53:19;14.93;;;7.23;;
6689;SDS011;3382;51.576;8.076;2023-04-25T00:55:49;13.03;;;6.33;;
6689;SDS011;3382;51.576;8.076;2023-04-25T00:58:18;12.33;;;7.47;;
6689;SDS011;3382;51.576;8.076;2023-04-25T01:00:45;15.57;;;6.97;;
6689;SDS011;3382;51.576;8.076;2023-04-25T01:03:12;14.33;;;6.40;;
6689;SDS011;3382;51.576;8.076;2023-04-25T01:05:41;13.97;;;6.80;;
6689;SDS011;3382;51.576;8.076;2023-04-25T01:08:07;11.70;;;6.63;;
6689;SDS011;3382;51.576;8.076;2023-04-25T01:10:33;14.40;;;7.20;;
6689;SDS011;3382;51.576;8.076;2023-04-25T01:12:58;14.77;;;7.00;;
6689;SDS011;3382;51.576;8.076;2023-04-25T01:15:24;17.40;;;7.40;;
6689;SDS011;3382;51.576;8.076;2023-04-25T01:17:50;19.93;;;7.33;;
6689;SDS011;3382;51.576;8.076;2023-04-25T01:20:16;14.47;;;6.87;;
6689;SDS011;3382;51.576;8.076;2023-04-25T01:22:42;12.83;;;7.17;;
6689;SDS011;3382;51.576;8.076;2023-04-25T01:25:08;14.63;;;7.40;;
6689;SDS011;3382;51.576;8.076;2023-04-25T01:27:35;9.37;;;7.10;;
6689;SDS011;3382;51.576;8.076;2023-04-25T01:30:01;11.43;;;7.20;;
6689;SDS011;3382;51.576;8.076;2023-04-25T01:32:27;19.63;;;7.97;;
6689;SDS011;3382;51.576;8.076;2023-04-25T01:34:53;16.10;;;8.53;;
6689;SDS011;3382;51.576;8.076;2023-04-25T01:37:18;17.80;;;8.23;;
6689;SDS011;3382;51.576;8.076;2023-04-25T01:39:44;16.33;;;7.70;;
6689;SDS011;3382;51.576;8.076;2023-04-25T01:42:10;12.67;;;8.30;;
6689;SDS011;3382;51.576;8.076;2023-04-25T01:44:35;15.00;;;8.37;;
6689;SDS011;3382;51.576;8.076;2023-04-25T01:47:01;14.47;;;7.87;;
6689;SDS011;3382;51.576;8.076;2023-04-25T01:49:27;12.10;;;7.23;;
6689;SDS011;3382;51.576;8.076;2023-04-25T01:51:52;15.77;;;7.37;;
6689;SDS011;3382;51.576;8.076;2023-04-25T01:54:18;12.77;;;7.83;;
6689;SDS011;3382;51.576;8.076;2023-04-25T01:56:49;14.40;;;8.33;;
6689;SDS011;3382;51.576;8.076;2023-04-25T01:59:16;16.70;;;8.87;;
6689;SDS011;3382;51.576;8.076;2023-04-25T02:01:41;13.03;;;8.77;;
6689;SDS011;3382;51.576;8.076;2023-04-25T02:04:07;15.73;;;8.10;;
6689;SDS011;3382;51.576;8.076;2023-04-25T02:06:32;16.07;;;7.83;;
6689;SDS011;3382;51.576;8.076;2023-04-25T02:08:58;12.20;;;8.03;;
6689;SDS011;3382;51.576;8.076;2023-04-25T02:11:23;12.73;;;8.20;;
6689;SDS011;3382;51.576;8.076;2023-04-25T02:13:49;13.77;;;9.77;;
6689;SDS011;3382;51.576;8.076;2023-04-25T02:16:15;19.23;;;9.43;;
6689;SDS011;3382;51.576;8.076;2023-04-25T02:18:41;18.30;;;9.57;;
6689;SDS011;3382;51.576;8.076;2023-04-25T02:21:06;17.20;;;10.33;;
6689;SDS011;3382;51.576;8.076;2023-04-25T02:23:32;17.90;;;9.40;;
6689;SDS011;3382;51.576;8.076;2023-04-25T02:25:58;17.37;;;9.57;;
6689;SDS011;3382;51.576;8.076;2023-04-25T02:28:24;19.63;;;9.83;;
6689;SDS011;3382;51.576;8.076;2023-04-25T02:30:50;15.50;;;10.07;;
6689;SDS011;3382;51.576;8.076;2023-04-25T02:33:16;19.07;;;10.37;;
6689;SDS011;3382;51.576;8.076;2023-04-25T02:35:42;21.17;;;11.13;;
6689;SDS011;3382;51.576;8.076;2023-04-25T02:38:08;19.17;;;10.90;;
6689;SDS011;3382;51.576;8.076;2023-04-25T02:40:33;20.83;;;10.23;;
6689;SDS011;3382;51.576;8.076;2023-04-25T02:42:59;21.00;;;10.70;;
6689;SDS011;3382;51.576;8.076;2023-04-25T02:45:24;17.00;;;10.73;;
6689;SDS011;3382;51.576;8.076;2023-04-25T02:47:50;15.97;;;10.10;;
6689;SDS011;3382;51.576;8.076;2023-04-25T02:50:16;14.13;;;9.40;;
6689;SDS011;3382;51.576;8.076;2023-04-25T02:52:43;17.87;;;10.53;;
6689;SDS011;3382;51.576;8.076;2023-04-25T02:55:09;16.77;;;10.13;;
6689;SDS011;3382;51.576;8.076;2023-04-25T02:57:35;16.10;;;10.47;;
6689;SDS011;3382;51.576;8.076;2023-04-25T03:00:01;15.63;;;10.50;;
6689;SDS011;3382;51.576;8.076;2023-04-25T03:02:27;14.33;;;9.47;;
6689;SDS011;3382;51.576;8.076;2023-04-25T03:04:52;17.67;;;10.23;;
6689;SDS011;3382;51.576;8.076;2023-04-25T03:07:18;24.67;;;9.40;;
6689;SDS011;3382;51.576;8.076;2023-04-25T03:09:44;17.10;;;9.57;;
6689;SDS011;3382;51.576;8.076;2023-04-25T03:12:09;14.27;;;8.43;;
6689;SDS011;3382;51.576;8.076;2023-04-25T03:14:35;19.67;;;9.50;;
6689;SDS011;3382;51.576;8.076;2023-04-25T03:17:01;16.10;;;8.93;;
6689;SDS011;3382;51.576;8.076;2023-04-25T03:19:26;14.50;;;9.70;;
6689;SDS011;3382;51.576;8.076;2023-04-25T03:21:52;15.30;;;9.40;;
6689;SDS011;3382;51.576;8.076;2023-04-25T03:24:18;18.07;;;9.67;;
6689;SDS011;3382;51.576;8.076;2023-04-25T03:26:44;14.83;;;9.53;;
6689;SDS011;3382;51.576;8.076;2023-04-25T03:29:10;15.17;;;10.20;;
6689;SDS011;3382;51.576;8.076;2023-04-25T03:31:36;19.17;;;9.87;;
6689;SDS011;3382;51.576;8.076;2023-04-25T03:34:02;12.93;;;9.43;;
6689;SDS011;3382;51.576;8.076;2023-04-25T03:36:27;15.63;;;9.27;;
6689;SDS011;3382;51.576;8.076;2023-04-25T03:38:53;17.17;;;9.97;;
6689;SDS011;3382;51.576;8.076;2023-04-25T03:41:18;20.60;;;9.73;;
6689;SDS011;3382;51.576;8.076;2023-04-25T03:43:45;16.07;;;9.07;;
6689;SDS011;3382;51.576;8.076;2023-04-25T03:46:10;14.90;;;9.10;;
6689;SDS011;3382;51.576;8.076;2023-04-25T03:48:36;15.90;;;7.80;;
6689;SDS011;3382;51.576;8.076;2023-04-25T03:51:01;15.60;;;8.60;;
6689;SDS011;3382;51.576;8.076;2023-04-25T03:53:27;13.77;;;7.73;;
6689;SDS011;3382;51.576;8.076;2023-04-25T03:55:53;12.43;;;7.73;;
6689;SDS011;3382;51.576;8.076;2023-04-25T03:58:18;18.37;;;8.10;;
6689;SDS011;3382;51.576;8.076;2023-04-25T04:00:44;15.60;;;7.53;;
6689;SDS011;3382;51.576;8.076;2023-04-25T04:03:10;14.93;;;7.30;;
6689;SDS011;3382;51.576;8.076;2023-04-25T04:05:36;13.80;;;6.67;;
6689;SDS011;3382;51.576;8.076;2023-04-25T04:08:02;14.17;;;6.87;;
6689;SDS011;3382;51.576;8.076;2023-04-25T04:10:27;13.77;;;6.77;;
6689;SDS011;3382;51.576;8.076;2023-04-25T04:12:53;17.77;;;6.13;;
6689;SDS011;3382;51.576;8.076;2023-04-25T04:15:19;11.93;;;5.97;;
6689;SDS011;3382;51.576;8.076;2023-04-25T04:17:44;12.00;;;6.37;;
6689;SDS011;3382;51.576;8.076;2023-04-25T04:20:11;17.57;;;6.87;;
6689;SDS011;3382;51.576;8.076;2023-04-25T04:22:37;12.33;;;6.17;;
6689;SDS011;3382;51.576;8.076;2023-04-25T04:25:03;15.33;;;7.77;;
6689;SDS011;3382;51.576;8.076;2023-04-25T04:27:29;13.10;;;5.40;;
6689;SDS011;3382;51.576;8.076;2023-04-25T04:29:55;13.87;;;5.83;;
6689;SDS011;3382;51.576;8.076;2023-04-25T04:32:21;14.67;;;6.90;;
6689;SDS011;3382;51.576;8.076;2023-04-25T04:34:48;11.70;;;5.27;;
6689;SDS011;3382;51.576;8.076;2023-04-25T04:37:13;13.47;;;5.67;;
6689;SDS011;3382;51.576;8.076;2023-04-25T04:39:39;14.57;;;6.37;;
6689;SDS011;3382;51.576;8.076;2023-04-25T04:42:05;16.83;;;6.10;;
6689;SDS011;3382;51.576;8.076;2023-04-25T04:44:31;11.27;;;5.33;;
6689;SDS011;3382;51.576;8.076;2023-04-25T04:47:00;15.87;;;6.00;;
6689;SDS011;3382;51.576;8.076;2023-04-25T04:49:26;15.70;;;5.93;;
6689;SDS011;3382;51.576;8.076;2023-04-25T04:51:52;15.03;;;4.73;;
6689;SDS011;3382;51.576;8.076;2023-04-25T04:54:19;14.60;;;5.47;;
6689;SDS011;3382;51.576;8.076;2023-04-25T04:56:45;13.80;;;5.13;;
6689;SDS011;3382;51.576;8.076;2023-04-25T04:59:10;15.60;;;5.10;;
6689;SDS011;3382;51.576;8.076;2023-04-25T05:01:36;9.37;;;4.10;;
6689;SDS011;3382;51.576;8.076;2023-04-25T05:04:02;11.27;;;4.40;;
6689;SDS011;3382;51.576;8.076;2023-04-25T05:06:28;10.93;;;4.23;;
6689;SDS011;3382;51.576;8.076;2023-04-25T05:08:55;15.70;;;5.73;;
6689;SDS011;3382;51.576;8.076;2023-04-25T05:11:21;3.63;;;2.33;;
6689;SDS011;3382;51.576;8.076;2023-04-25T05:13:48;4.47;;;2.63;;
6689;SDS011;3382;51.576;8.076;2023-04-25T05:16:14;10.77;;;4.40;;
6689;SDS011;3382;51.576;8.076;2023-04-25T05:18:40;6.57;;;2.83;;
6689;SDS011;3382;51.576;8.076;2023-04-25T05:21:06;12.83;;;4.30;;
6689;SDS011;3382;51.576;8.076;2023-04-25T05:23:34;11.90;;;4.33;;
6689;SDS011;3382;51.576;8.076;2023-04-25T05:26:00;13.53;;;5.10;;
6689;SDS011;3382;51.576;8.076;2023-04-25T05:28:26;18.60;;;5.30;;
6689;SDS011;3382;51.576;8.076;2023-04-25T05:30:51;20.20;;;5.37;;
6689;SDS011;3382;51.576;8.076;2023-04-25T05:33:17;9.00;;;2.70;;
6689;SDS011;3382;51.576;8.076;2023-04-25T05:35:43;5.93;;;2.33;;
6689;SDS011;3382;51.576;8.076;2023-04-25T05:38:09;15.77;;;4.70;;
6689;SDS011;3382;51.576;8.076;2023-04-25T05:40:35;14.20;;;5.40;;
6689;SDS011;3382;51.576;8.076;2023-04-25T05:43:00;14.50;;;5.03;;
6689;SDS011;3382;51.576;8.076;2023-04-25T05:45:26;14.87;;;4.60;;
6689;SDS011;3382;51.576;8.076;2023-04-25T05:47:52;14.80;;;5.50;;
6689;SDS011;3382;51.576;8.076;2023-04-25T05:50:17;12.13;;;4.70;;
6689;SDS011;3382;51.576;8.076;2023-04-25T05:52:43;12.60;;;4.17;;
6689;SDS011;3382;51.576;8.076;2023-04-25T05:55:09;12.00;;;4.73;;
6689;SDS011;3382;51.576;8.076;2023-04-25T05:57:34;13.23;;;4.80;;
6689;SDS011;3382;51.576;8.076;2023-04-25T06:00:00;12.93;;;4.73;;
6689;SDS011;3382;51.576;8.076;2023-04-25T06:02:26;15.43;;;5.17;;
6689;SDS011;3382;51.576;8.076;2023-04-25T06:04:51;13.67;;;5.20;;
6689;SDS011;3382;51.576;8.076;2023-04-25T06:07:17;15.27;;;5.03;;
6689;SDS011;3382;51.576;8.076;2023-04-25T06:09:44;16.63;;;5.03;;
6689;SDS011;3382;51.576;8.076;2023-04-25T06:12:10;16.30;;;5.00;;
6689;SDS011;3382;51.576;8.076;2023-04-25T06:14:35;14.40;;;4.60;;
6689;SDS011;3382;51.576;8.076;2023-04-25T06:17:02;11.60;;;4.63;;
6689;SDS011;3382;51.576;8.076;2023-04-25T06:19:34;16.53;;;5.27;;
6689;SDS011;3382;51.576;8.076;2023-04-25T06:22:01;15.73;;;5.13;;
6689;SDS011;3382;51.576;8.076;2023-04-25T06:24:27;17.47;;;5.37;;
6689;SDS011;3382;51.576;8.076;2023-04-25T06:26:53;17.37;;;5.40;;
6689;SDS011;3382;51.576;8.076;2023-04-25T06:29:19;10.47;;;4.30;;
6689;SDS011;3382;51.576;8.076;2023-04-25T06:31:45;13.60;;;4.90;;
6689;SDS011;3382;51.576;8.076;2023-04-25T06:34:10;13.77;;;4.37;;
6689;SDS011;3382;51.576;8.076;2023-04-25T06:36:36;9.83;;;4.20;;
6689;SDS011;3382;51.576;8.076;2023-04-25T06:39:02;14.50;;;5.03;;
6689;SDS011;3382;51.576;8.076;2023-04-25T06:41:27;14.20;;;5.10;;
6689;SDS011;3382;51.576;8.076;2023-04-25T06:43:53;14.70;;;4.67;;
6689;SDS011;3382;51.576;8.076;2023-04-25T06:46:18;13.30;;;4.17;;
6689;SDS011;3382;51.576;8.076;2023-04-25T06:48:44;18.37;;;4.40;;
6689;SDS011;3382;51.576;8.076;2023-04-25T06:51:10;13.90;;;4.17;;
6689;SDS011;3382;51.576;8.076;2023-04-25T06:53:35;18.53;;;4.83;;
6689;SDS011;3382;51.576;8.076;2023-04-25T06:56:01;14.23;;;4.00;;
6689;SDS011;3382;51.576;8.076;2023-04-25T06:58:28;16.47;;;4.30;;
6689;SDS011;3382;51.576;8.076;2023-04-25T07:00:53;10.13;;;3.37;;
6689;SDS011;3382;51.576;8.076;2023-04-25T07:03:19;15.97;;;4.77;;
6689;SDS011;3382;51.576;8.076;2023-04-25T07:05:45;15.47;;;4.50;;
6689;SDS011;3382;51.576;8.076;2023-04-25T07:08:11;17.77;;;4.20;;
6689;SDS011;3382;51.576;8.076;2023-04-25T07:10:37;10.73;;;3.87;;
6689;SDS011;3382;51.576;8.076;2023-04-25T07:13:02;13.10;;;3.70;;
6689;SDS011;3382;51.576;8.076;2023-04-25T07:15:28;11.70;;;3.80;;
6689;SDS011;3382;51.576;8.076;2023-04-25T07:17:53;10.07;;;3.90;;
6689;SDS011;3382;51.576;8.076;2023-04-25T07:20:19;15.70;;;4.17;;
6689;SDS011;3382;51.576;8.076;2023-04-25T07:22:45;10.13;;;4.00;;
6689;SDS011;3382;51.576;8.076;2023-04-25T07:25:10;11.07;;;3.93;;
6689;SDS011;3382;51.576;8.076;2023-04-25T07:27:36;8.90;;;3.60;;
6689;SDS011;3382;51.576;8.076;2023-04-25T07:30:02;14.30;;;4.20;;
6689;SDS011;3382;51.576;8.076;2023-04-25T07:32:29;12.40;;;3.20;;
6689;SDS011;3382;51.576;8.076;2023-04-25T07:34:54;16.17;;;3.70;;
6689;SDS011;3382;51.576;8.076;2023-04-25T07:37:20;12.63;;;3.93;;
6689;SDS011;3382;51.576;8.076;2023-04-25T07:39:46;13.40;;;3.83;;
6689;SDS011;3382;51.576;8.076;2023-04-25T07:42:12;8.67;;;3.47;;
6689;SDS011;3382;51.576;8.076;2023-04-25T07:44:37;9.90;;;3.63;;
6689;SDS011;3382;51.576;8.076;2023-04-25T07:47:05;9.70;;;3.20;;
6689;SDS011;3382;51.576;8.076;2023-04-25T07:49:34;7.77;;;2.67;;
6689;SDS011;3382;51.576;8.076;2023-04-25T07:52:01;11.23;;;3.57;;
6689;SDS011;3382;51.576;8.076;2023-04-25T07:54:27;10.37;;;3.47;;
6689;SDS011;3382;51.576;8.076;2023-04-25T07:56:53;9.23;;;2.97;;
6689;SDS011;3382;51.576;8.076;2023-04-25T07:59:19;14.57;;;3.93;;
6689;SDS011;3382;51.576;8.076;2023-04-25T08:01:45;10.93;;;3.47;;
6689;SDS011;3382;51.576;8.076;2023-04-25T08:04:10;9.93;;;3.03;;
6689;SDS011;3382;51.576;8.076;2023-04-25T08:06:36;11.23;;;3.47;;
6689;SDS011;3382;51.576;8.076;2023-04-25T08:09:02;9.80;;;3.50;;
6689;SDS011;3382;51.576;8.076;2023-04-25T08:11:29;10.57;;;2.90;;
6689;SDS011;3382;51.576;8.076;2023-04-25T08:13:54;16.10;;;4.80;;
6689;SDS011;3382;51.576;8.076;2023-04-25T08:16:20;8.57;;;3.67;;
6689;SDS011;3382;51.576;8.076;2023-04-25T08:18:46;9.53;;;3.43;;
6689;SDS011;3382;51.576;8.076;2023-04-25T08:21:12;6.47;;;3.33;;
6689;SDS011;3382;51.576;8.076;2023-04-25T08:23:38;11.37;;;2.97;;
6689;SDS011;3382;51.576;8.076;2023-04-25T08:26:04;7.63;;;2.60;;
6689;SDS011;3382;51.576;8.076;2023-04-25T08:28:30;8.47;;;3.23;;
6689;SDS011;3382;51.576;8.076;2023-04-25T08:30:56;10.17;;;2.63;;
6689;SDS011;3382;51.576;8.076;2023-04-25T08:33:22;9.50;;;2.70;;
6689;SDS011;3382;51.576;8.076;2023-04-25T08:35:48;9.77;;;2.80;;
6689;SDS011;3382;51.576;8.076;2023-04-25T08:38:13;6.63;;;2.40;;
6689;SDS011;3382;51.576;8.076;2023-04-25T08:40:39;11.37;;;3.37;;
6689;SDS011;3382;51.576;8.076;2023-04-25T08:43:06;10.27;;;3.40;;
6689;SDS011;3382;51.576;8.076;2023-04-25T08:45:38;7.27;;;2.60;;
6689;SDS011;3382;51.576;8.076;2023-04-25T08:48:11;8.67;;;2.90;;
6689;SDS011;3382;51.576;8.076;2023-04-25T08:50:39;7.90;;;2.77;;
6689;SDS011;3382;51.576;8.076;2023-04-25T08:53:08;8.07;;;2.77;;
6689;SDS011;3382;51.576;8.076;2023-04-25T08:55:38;9.10;;;3.10;;
6689;SDS011;3382;51.576;8.076;2023-04-25T08:58:06;10.37;;;2.40;;
6689;SDS011;3382;51.576;8.076;2023-04-25T09:00:35;6.30;;;2.50;;
6689;SDS011;3382;51.576;8.076;2023-04-25T09:03:00;7.93;;;2.70;;
6689;SDS011;3382;51.576;8.076;2023-04-25T09:05:27;10.40;;;2.97;;
6689;SDS011;3382;51.576;8.076;2023-04-25T09:07:53;8.53;;;3.17;;
6689;SDS011;3382;51.576;8.076;2023-04-25T09:10:19;10.67;;;2.60;;
6689;SDS011;3382;51.576;8.076;2023-04-25T09:12:53;11.70;;;2.60;;
6689;SDS011;3382;51.576;8.076;2023-04-25T09:15:28;7.53;;;2.80;;
6689;SDS011;3382;51.576;8.076;2023-04-25T09:17:55;7.77;;;2.50;;
6689;SDS011;3382;51.576;8.076;2023-04-25T09:20:21;6.83;;;2.70;;
6689;SDS011;3382;51.576;8.076;2023-04-25T09:22:46;10.63;;;2.97;;
6689;SDS011;3382;51.576;8.076;2023-04-25T09:25:12;8.17;;;2.87;;
6689;SDS011;3382;51.576;8.076;2023-04-25T09:27:51;7.57;;;2.50;;
6689;SDS011;3382;51.576;8.076;2023-04-25T09:30:30;10.10;;;2.40;;
6689;SDS011;3382;51.576;8.076;2023-04-25T09:33:05;6.43;;;2.27;;
6689;SDS011;3382;51.576;8.076;2023-04-25T09:35:38;6.40;;;3.13;;
6689;SDS011;3382;51.576;8.076;2023-04-25T09:38:18;10.90;;;3.03;;
6689;SDS011;3382;51.576;8.076;2023-04-25T09:40:44;9.70;;;3.30;;
6689;SDS011;3382;51.576;8.076;2023-04-25T09:43:20;8.73;;;2.70;;
6689;SDS011;3382;51.576;8.076;2023-04-25T09:45:47;8.10;;;2.57;;
6689;SDS011;3382;51.576;8.076;2023-04-25T09:48:20;7.87;;;1.97;;
6689;SDS011;3382;51.576;8.076;2023-04-25T09:51:03;3.37;;;1.73;;
6689;SDS011;3382;51.576;8.076;2023-04-25T09:53:33;6.07;;;2.30;;
6689;SDS011;3382;51.576;8.076;2023-04-25T09:56:00;7.60;;;2.10;;
6689;SDS011;3382;51.576;8.076;2023-04-25T09:58:30;3.43;;;2.20;;
6689;SDS011;3382;51.576;8.076;2023-04-25T10:00:58;6.47;;;2.17;;
6689;SDS011;3382;51.576;8.076;2023-04-25T10:03:26;9.23;;;2.10;;
6689;SDS011;3382;51.576;8.076;2023-04-25T10:05:53;6.10;;;2.60;;
6689;SDS011;3382;51.576;8.076;2023-04-25T10:08:20;5.77;;;2.50;;
6689;SDS011;3382;51.576;8.076;2023-04-25T10:10:47;4.60;;;1.50;;
6689;SDS011;3382;51.576;8.076;2023-04-25T10:13:15;7.03;;;2.77;;
6689;SDS011;3382;51.576;8.076;2023-04-25T10:15:41;6.03;;;2.60;;
6689;SDS011;3382;51.576;8.076;2023-04-25T10:18:07;6.23;;;2.60;;
6689;SDS011;3382;51.576;8.076;2023-04-25T10:20:33;7.50;;;2.37;;
6689;SDS011;3382;51.576;8.076;2023-04-25T10:23:04;6.73;;;2.27;;
6689;SDS011;3382;51.576;8.076;2023-04-25T10:25:38;6.47;;;2.50;;
6689;SDS011;3382;51.576;8.076;2023-04-25T10:28:05;8.80;;;2.40;;
6689;SDS011;3382;51.576;8.076;2023-04-25T10:30:31;5.97;;;1.90;;
6689;SDS011;3382;51.576;8.076;2023-04-25T10:32:56;7.37;;;2.30;;
6689;SDS011;3382;51.576;8.076;2023-04-25T10:35:25;5.97;;;2.87;;
6689;SDS011;3382;51.576;8.076;2023-04-25T10:37:59;4.40;;;1.90;;
6689;SDS011;3382;51.576;8.076;2023-04-25T10:40:28;7.67;;;2.23;;
6689;SDS011;3382;51.576;8.076;2023-04-25T10:42:55;5.77;;;2.13;;
6689;SDS011;3382;51.576;8.076;2023-04-25T10:45:50;2.93;;;1.67;;
6689;SDS011;3382;51.576;8.076;2023-04-25T10:48:30;3.90;;;1.60;;
6689;SDS011;3382;51.576;8.076;2023-04-25T10:53:34;1.80;;;1.20;;
6689;SDS011;3382;51.576;8.076;2023-04-25T10:56:00;4.53;;;1.80;;
6689;SDS011;3382;51.576;8.076;2023-04-25T10:58:34;5.70;;;2.33;;
6689;SDS011;3382;51.576;8.076;2023-04-25T11:01:00;4.63;;;1.87;;
6689;SDS011;3382;51.576;8.076;2023-04-25T11:03:26;5.37;;;2.20;;
6689;SDS011;3382;51.576;8.076;2023-04-25T11:05:52;4.87;;;1.90;;
6689;SDS011;3382;51.576;8.076;2023-04-25T11:08:21;11.20;;;2.50;;
6689;SDS011;3382;51.576;8.076;2023-04-25T11:11:01;6.67;;;1.90;;
6689;SDS011;3382;51.576;8.076;2023-04-25T11:13:30;3.87;;;1.90;;
6689;SDS011;3382;51.576;8.076;2023-04-25T11:15:56;7.97;;;2.40;;
6689;SDS011;3382;51.576;8.076;2023-04-25T11:18:25;3.30;;;1.53;;
6689;SDS011;3382;51.576;8.076;2023-04-25T11:20:52;7.83;;;2.23;;
6689;SDS011;3382;51.576;8.076;2023-04-25T11:23:17;3.73;;;2.00;;
6689;SDS011;3382;51.576;8.076;2023-04-25T11:25:43;3.60;;;1.90;;
6689;SDS011;3382;51.576;8.076;2023-04-25T11:28:09;7.13;;;1.93;;
6689;SDS011;3382;51.576;8.076;2023-04-25T11:30:35;5.80;;;1.87;;
6689;SDS011;3382;51.576;8.076;2023-04-25T11:33:00;4.80;;;1.70;;
6689;SDS011;3382;51.576;8.076;2023-04-25T11:35:28;6.27;;;2.10;;
6689;SDS011;3382;51.576;8.076;2023-04-25T11:37:53;5.60;;;2.57;;
6689;SDS011;3382;51.576;8.076;2023-04-25T11:40:19;4.57;;;1.50;;
6689;SDS011;3382;51.576;8.076;2023-04-25T11:42:45;6.70;;;2.10;;
6689;SDS011;3382;51.576;8.076;2023-04-25T11:45:12;6.83;;;1.90;;
6689;SDS011;3382;51.576;8.076;2023-04-25T11:47:38;6.80;;;1.80;;
6689;SDS011;3382;51.576;8.076;2023-04-25T11:50:05;4.20;;;1.80;;
6689;SDS011;3382;51.576;8.076;2023-04-25T11:52:39;5.80;;;1.70;;
6689;SDS011;3382;51.576;8.076;2023-04-25T11:55:25;3.10;;;1.10;;
6689;SDS011;3382;51.576;8.076;2023-04-25T11:57:51;3.83;;;1.77;;
6689;SDS011;3382;51.576;8.076;2023-04-25T12:00:20;7.00;;;2.07;;
6689;SDS011;3382;51.576;8.076;2023-04-25T12:02:50;5.47;;;2.03;;
6689;SDS011;3382;51.576;8.076;2023-04-25T12:05:23;6.30;;;2.03;;
6689;SDS011;3382;51.576;8.076;2023-04-25T12:07:50;3.23;;;1.27;;
6689;SDS011;3382;51.576;8.076;2023-04-25T12:10:16;2.53;;;1.37;;
6689;SDS011;3382;51.576;8.076;2023-04-25T12:12:46;3.57;;;1.40;;
6689;SDS011;3382;51.576;8.076;2023-04-25T12:15:16;3.33;;;1.70;;
6689;SDS011;3382;51.576;8.076;2023-04-25T12:17:46;3.10;;;1.40;;
6689;SDS011;3382;51.576;8.076;2023-04-25T12:20:14;2.10;;;1.20;;
6689;SDS011;3382;51.576;8.076;2023-04-25T12:22:42;2.90;;;1.70;;
6689;SDS011;3382;51.576;8.076;2023-04-25T12:25:10;2.17;;;1.10;;
6689;SDS011;3382;51.576;8.076;2023-04-25T12:27:37;2.20;;;1.23;;
6689;SDS011;3382;51.576;8.076;2023-04-25T12:30:02;4.33;;;1.50;;
6689;SDS011;3382;51.576;8.076;2023-04-25T12:32:28;1.53;;;1.20;;
6689;SDS011;3382;51.576;8.076;2023-04-25T12:34:54;4.73;;;1.70;;
6689;SDS011;3382;51.576;8.076;2023-04-25T12:37:20;1.30;;;1.20;;
6689;SDS011;3382;51.576;8.076;2023-04-25T12:39:46;2.27;;;1.37;;
6689;SDS011;3382;51.576;8.076;2023-04-25T12:42:11;1.87;;;1.10;;
6689;SDS011;3382;51.576;8.076;2023-04-25T12:44:37;2.43;;;1.17;;
6689;SDS011;3382;51.576;8.076;2023-04-25T12:47:03;2.50;;;1.37;;
6689;SDS011;3382;51.576;8.076;2023-04-25T12:49:30;1.10;;;1.00;;
6689;SDS011;3382;51.576;8.076;2023-04-25T12:51:58;1.67;;;1.20;;
6689;SDS011;3382;51.576;8.076;2023-04-25T12:54:24;1.53;;;1.03;;
6689;SDS011;3382;51.576;8.076;2023-04-25T12:56:50;3.73;;;1.30;;
6689;SDS011;3382;51.576;8.076;2023-04-25T12:59:16;5.00;;;1.30;;
6689;SDS011;3382;51.576;8.076;2023-04-25T13:01:42;2.40;;;1.40;;
6689;SDS011;3382;51.576;8.076;2023-04-25T13:04:09;3.63;;;1.40;;
6689;SDS011;3382;51.576;8.076;2023-04-25T13:06:34;1.10;;;0.93;;
6689;SDS011;3382;51.576;8.076;2023-04-25T13:09:00;1.97;;;1.20;;
6689;SDS011;3382;51.576;8.076;2023-04-25T13:11:26;4.50;;;1.70;;
6689;SDS011;3382;51.576;8.076;2023-04-25T13:13:52;3.63;;;1.87;;
6689;SDS011;3382;51.576;8.076;2023-04-25T13:16:17;6.90;;;2.27;;
6689;SDS011;3382;51.576;8.076;2023-04-25T13:18:45;3.27;;;2.03;;
6689;SDS011;3382;51.576;8.076;2023-04-25T13:21:11;5.10;;;1.73;;
6689;SDS011;3382;51.576;8.076;2023-04-25T13:23:36;4.43;;;2.00;;
6689;SDS011;3382;51.576;8.076;2023-04-25T13:26:02;4.03;;;1.80;;
6689;SDS011;3382;51.576;8.076;2023-04-25T13:28:28;4.50;;;1.90;;
6689;SDS011;3382;51.576;8.076;2023-04-25T13:30:54;5.87;;;1.90;;
6689;SDS011;3382;51.576;8.076;2023-04-25T13:33:20;4.47;;;1.87;;
6689;SDS011;3382;51.576;8.076;2023-04-25T13:35:47;5.60;;;1.80;;
6689;SDS011;3382;51.576;8.076;2023-04-25T13:38:21;11.03;;;3.30;;
6689;SDS011;3382;51.576;8.076;2023-04-25T13:40:48;6.03;;;2.10;;
6689;SDS011;3382;51.576;8.076;2023-04-25T13:43:14;6.10;;;2.23;;
6689;SDS011;3382;51.576;8.076;2023-04-25T13:45:40;9.07;;;2.20;;
6689;SDS011;3382;51.576;8.076;2023-04-25T13:48:06;2.63;;;1.60;;
6689;SDS011;3382;51.576;8.076;2023-04-25T13:50:31;4.93;;;1.67;;
6689;SDS011;3382;51.576;8.076;2023-04-25T13:52:57;3.30;;;1.90;;
6689;SDS011;3382;51.576;8.076;2023-04-25T13:55:22;2.87;;;1.80;;
6689;SDS011;3382;51.576;8.076;2023-04-25T13:57:48;6.30;;;2.20;;
6689;SDS011;3382;51.576;8.076;2023-04-25T14:00:14;2.70;;;1.50;;
6689;SDS011;3382;51.576;8.076;2023-04-25T14:02:40;5.57;;;1.80;;
6689;SDS011;3382;51.576;8.076;2023-04-25T14:05:05;4.30;;;1.80;;
6689;SDS011;3382;51.576;8.076;2023-04-25T14:07:35;5.17;;;2.13;;
6689;SDS011;3382;51.576;8.076;2023-04-25T14:10:02;4.57;;;1.80;;
6689;SDS011;3382;51.576;8.076;2023-04-25T14:12:29;5.67;;;2.30;;
6689;SDS011;3382;51.576;8.076;2023-04-25T14:14:55;6.43;;;2.60;;
6689;SDS011;3382;51.576;8.076;2023-04-25T14:17:21;4.83;;;2.57;;
6689;SDS011;3382;51.576;8.076;2023-04-25T14:19:46;6.03;;;2.77;;
6689;SDS011;3382;51.576;8.076;2023-04-25T14:22:13;2.33;;;1.40;;
6689;SDS011;3382;51.576;8.076;2023-04-25T14:24:39;5.83;;;2.27;;
6689;SDS011;3382;51.576;8.076;2023-04-25T14:27:05;4.20;;;1.73;;
6689;SDS011;3382;51.576;8.076;2023-04-25T14:29:31;4.30;;;1.63;;
6689;SDS011;3382;51.576;8.076;2023-04-25T14:31:57;3.27;;;1.50;;
6689;SDS011;3382;51.576;8.076;2023-04-25T14:34:24;3.80;;;1.50;;
6689;SDS011;3382;51.576;8.076;2023-04-25T14:36:50;4.80;;;1.50;;
6689;SDS011;3382;51.576;8.076;2023-04-25T14:39:16;5.47;;;1.50;;
6689;SDS011;3382;51.576;8.076;2023-04-25T14:41:42;5.17;;;1.70;;
6689;SDS011;3382;51.576;8.076;2023-04-25T14:44:07;3.50;;;1.40;;
6689;SDS011;3382;51.576;8.076;2023-04-25T14:46:33;3.40;;;1.47;;
6689;SDS011;3382;51.576;8.076;2023-04-25T14:48:59;4.00;;;1.37;;
6689;SDS011;3382;51.576;8.076;2023-04-25T14:51:25;18.07;;;2.70;;
6689;SDS011;3382;51.576;8.076;2023-04-25T14:53:51;4.20;;;1.57;;
6689;SDS011;3382;51.576;8.076;2023-04-25T14:56:17;1.87;;;1.30;;
6689;SDS011;3382;51.576;8.076;2023-04-25T14:58:43;3.67;;;1.30;;
6689;SDS011;3382;51.576;8.076;2023-04-25T15:01:10;2.00;;;1.30;;
6689;SDS011;3382;51.576;8.076;2023-04-25T15:03:36;1.70;;;1.10;;
6689;SDS011;3382;51.576;8.076;2023-04-25T15:06:02;0.97;;;0.90;;
6689;SDS011;3382;51.576;8.076;2023-04-25T15:08:27;4.47;;;1.30;;